createdAt,value
2019-01-23T00:00:58.427Z,121.97
2019-01-23T00:03:32.967Z,113.80
2019-01-23T00:06:05.718Z,95.47
2019-01-23T00:08:44.240Z,97.87
2019-01-23T00:11:15.500Z,102.47
2019-01-23T00:13:46.274Z,108.47
2019-01-23T00:16:16.638Z,88.23
2019-01-23T00:18:50.697Z,93.13
2019-01-23T00:21:21.262Z,115.40
2019-01-23T00:23:53.131Z,99.33
2019-01-23T00:26:24.270Z,108.77
2019-01-23T00:28:53.975Z,107.23
2019-01-23T00:31:23.610Z,96.17
2019-01-23T00:33:53.255Z,89.70
2019-01-23T00:36:25.790Z,117.77
2019-01-23T00:38:57.762Z,117.13
2019-01-23T00:41:27.464Z,117.13
2019-01-23T00:43:57.835Z,102.67
2019-01-23T00:46:30.648Z,89.23
2019-01-23T00:49:01.382Z,96.80
2019-01-23T00:51:33.234Z,90.67
2019-01-23T00:54:03.137Z,89.03
2019-01-23T00:56:32.745Z,96.87
2019-01-23T00:59:02.859Z,106.10
2019-01-23T01:01:39.655Z,102.90
2019-01-23T01:04:11.413Z,111.30
2019-01-23T01:06:44.732Z,100.83
2019-01-23T01:09:15.895Z,111.90
2019-01-23T01:11:47.574Z,120.40
2019-01-23T01:14:20.697Z,122.40
2019-01-23T01:16:53.848Z,104.53
2019-01-23T01:19:24.817Z,98.40
2019-01-23T01:21:58.657Z,119.90
2019-01-23T01:24:31.155Z,111.07
2019-01-23T01:27:01.304Z,102.00
2019-01-23T01:29:35.547Z,120.40
2019-01-23T01:32:11.353Z,131.60
2019-01-23T01:34:43.941Z,108.13
2019-01-23T01:37:13.899Z,116.70
2019-01-23T01:39:43.699Z,107.93
2019-01-23T01:42:13.362Z,111.00
2019-01-23T01:44:43.037Z,118.63
2019-01-23T01:47:12.741Z,125.90
2019-01-23T01:49:43.411Z,118.13
2019-01-23T01:52:13.093Z,126.17
2019-01-23T01:54:42.731Z,119.77
2019-01-23T01:57:13.105Z,120.80
2019-01-23T01:59:42.831Z,121.70
2019-01-23T02:02:12.477Z,130.43
2019-01-23T02:04:42.781Z,120.93
2019-01-23T02:07:13.688Z,122.30
2019-01-23T02:09:45.526Z,118.73
2019-01-23T02:12:14.615Z,137.83
2019-01-23T02:14:44.317Z,132.47
2019-01-23T02:17:13.956Z,119.07
2019-01-23T02:19:43.634Z,116.60
2019-01-23T02:22:16.528Z,126.00
2019-01-23T02:24:46.187Z,135.90
2019-01-23T02:27:16.900Z,125.73
2019-01-23T02:29:48.389Z,136.67
2019-01-23T02:32:19.137Z,118.20
2019-01-23T02:34:51.644Z,106.20
2019-01-23T02:37:21.655Z,103.53
2019-01-23T02:39:55.282Z,96.83
2019-01-23T02:42:31.001Z,115.77
2019-01-23T02:45:03.306Z,118.80
2019-01-23T02:47:35.013Z,106.80
2019-01-23T02:50:07.370Z,110.87
2019-01-23T02:52:37.101Z,114.97
2019-01-23T02:55:09.315Z,118.77
2019-01-23T02:57:40.940Z,114.97
2019-01-23T03:00:19.338Z,100.03
2019-01-23T03:02:51.982Z,103.77
2019-01-23T03:05:21.341Z,104.93
2019-01-23T03:07:54.099Z,96.67
2019-01-23T03:10:26.064Z,97.63
2019-01-23T03:12:57.823Z,107.07
2019-01-23T03:15:30.981Z,106.23
2019-01-23T03:18:00.652Z,99.67
2019-01-23T03:20:33.314Z,119.30
2019-01-23T03:23:04.541Z,106.90
2019-01-23T03:25:34.224Z,110.43
2019-01-23T03:28:05.216Z,97.90
2019-01-23T03:30:34.940Z,108.00
2019-01-23T03:33:04.629Z,108.93
2019-01-23T03:35:35.024Z,112.03
2019-01-23T03:38:05.176Z,100.27
2019-01-23T03:40:34.840Z,111.33
2019-01-23T03:43:05.218Z,105.77
2019-01-23T03:45:34.904Z,92.47
2019-01-23T03:48:04.592Z,109.33
2019-01-23T03:50:37.849Z,89.03
2019-01-23T03:53:07.494Z,91.70
2019-01-23T03:55:37.240Z,93.17
2019-01-23T03:58:10.025Z,92.90
2019-01-23T04:00:41.427Z,112.60
2019-01-23T04:03:12.718Z,107.17
2019-01-23T04:05:44.696Z,102.73
2019-01-23T04:08:14.563Z,97.07
2019-01-23T04:10:44.250Z,100.90
2019-01-23T04:13:15.049Z,96.57
2019-01-23T04:15:45.222Z,87.83
2019-01-23T04:18:16.060Z,65.63
2019-01-23T04:20:51.138Z,124.93
2019-01-23T04:23:20.788Z,110.27
2019-01-23T04:25:53.946Z,113.83
2019-01-23T04:28:23.647Z,85.27
2019-01-23T04:30:55.207Z,68.37
2019-01-23T04:33:27.914Z,60.77
2019-01-23T04:35:59.541Z,70.17
2019-01-23T04:38:31.202Z,61.50
2019-01-23T04:41:02.500Z,61.53
2019-01-23T04:43:35.511Z,69.53
2019-01-23T04:46:07.822Z,89.27
2019-01-23T04:48:38.272Z,71.77
2019-01-23T04:51:11.011Z,69.70
2019-01-23T04:53:43.033Z,77.27
2019-01-23T04:56:12.695Z,74.07
2019-01-23T04:58:44.983Z,74.97
2019-01-23T05:01:14.941Z,81.83
2019-01-23T05:03:45.100Z,93.63
2019-01-23T05:06:14.709Z,88.60
2019-01-23T05:08:52.989Z,87.40
2019-01-23T05:11:24.469Z,115.63
2019-01-23T05:13:54.238Z,104.90
2019-01-23T05:16:23.881Z,94.60
2019-01-23T05:18:53.553Z,103.63
2019-01-23T05:21:23.827Z,130.73
2019-01-23T05:23:54.509Z,95.47
2019-01-23T05:26:26.894Z,86.67
2019-01-23T05:28:57.148Z,88.97
2019-01-23T05:31:26.832Z,90.23
2019-01-23T05:34:02.003Z,98.43
2019-01-23T05:36:37.087Z,81.37
2019-01-23T05:39:09.557Z,114.17
2019-01-23T05:41:40.512Z,96.40
2019-01-23T05:44:11.698Z,113.37
2019-01-23T05:46:41.368Z,91.87
2019-01-23T05:49:15.514Z,79.83
2019-01-23T05:51:46.315Z,66.97
2019-01-23T05:54:18.935Z,50.57
2019-01-23T05:56:57.512Z,48.90
2019-01-23T05:59:36.185Z,62.77
2019-01-23T06:02:09.440Z,52.80
2019-01-23T06:04:40.622Z,60.93
2019-01-23T06:07:12.937Z,59.93
2019-01-23T06:09:48.675Z,49.60
2019-01-23T06:12:19.156Z,71.50
2019-01-23T06:14:49.245Z,58.60
2019-01-23T06:17:20.937Z,70.90
2019-01-23T06:19:52.357Z,71.83
2019-01-23T06:22:22.703Z,79.83
2019-01-23T06:24:54.009Z,93.43
2019-01-23T06:27:24.255Z,86.20
2019-01-23T06:29:54.402Z,93.17
2019-01-23T06:32:30.408Z,91.97
2019-01-23T06:35:06.498Z,81.50
2019-01-23T06:37:31.495Z,80.77
2019-01-23T06:40:02.740Z,86.23
2019-01-23T06:42:34.013Z,65.27
2019-01-23T06:45:07.315Z,67.70
2019-01-23T06:47:38.969Z,78.83
2019-01-23T06:50:15.559Z,62.23
2019-01-23T06:52:48.403Z,57.80
2019-01-23T06:55:25.567Z,69.77
2019-01-23T06:58:00.515Z,44.13
2019-01-23T07:00:33.001Z,43.10
2019-01-23T07:03:04.544Z,49.20
2019-01-23T07:05:35.830Z,60.10
2019-01-23T07:08:08.361Z,65.93
2019-01-23T07:11:02.350Z,44.33
2019-01-23T07:13:38.352Z,72.27
2019-01-23T07:16:12.523Z,72.90
2019-01-23T07:18:42.205Z,76.90
2019-01-23T07:21:12.048Z,73.60
2019-01-23T07:23:42.361Z,75.90
2019-01-23T07:26:12.014Z,67.67
2019-01-23T07:28:49.208Z,100.87
2019-01-23T07:31:17.004Z,104.77
2019-01-23T07:33:54.883Z,121.07
2019-01-23T07:36:29.407Z,142.37
2019-01-23T07:39:03.397Z,139.13
2019-01-23T07:41:40.385Z,125.17
2019-01-23T07:44:13.221Z,110.63
2019-01-23T07:46:47.285Z,128.20
2019-01-23T07:49:20.156Z,130.80
2019-01-23T07:51:55.737Z,92.37
2019-01-23T07:54:26.946Z,82.67
2019-01-23T07:57:00.511Z,92.13
2019-01-23T07:59:35.135Z,87.73
2019-01-23T08:02:07.640Z,104.80
2019-01-23T08:04:41.066Z,117.27
2019-01-23T08:07:11.813Z,86.10
2019-01-23T08:09:44.159Z,117.37
2019-01-23T08:12:16.999Z,104.30
2019-01-23T08:14:47.881Z,90.97
2019-01-23T08:17:20.498Z,100.57
2019-01-23T08:19:53.323Z,86.57
2019-01-23T08:22:24.186Z,89.97
2019-01-23T08:24:57.034Z,80.47
2019-01-23T08:27:28.289Z,86.90
2019-01-23T08:29:57.934Z,115.40
2019-01-23T08:32:28.786Z,92.43
2019-01-23T08:35:00.700Z,95.97
2019-01-23T08:37:35.036Z,85.63
2019-01-23T08:40:08.122Z,82.23
2019-01-23T08:42:38.918Z,78.27
2019-01-23T08:45:11.705Z,83.83
2019-01-23T08:47:46.074Z,79.23
2019-01-23T08:50:27.346Z,81.83
2019-01-23T08:52:57.055Z,79.57
2019-01-23T08:55:27.696Z,88.93
2019-01-23T08:58:02.710Z,78.17
2019-01-23T09:00:32.380Z,70.00
2019-01-23T09:03:03.638Z,72.83
2019-01-23T09:05:37.290Z,67.90
2019-01-23T09:08:06.936Z,69.53
2019-01-23T09:10:39.050Z,74.20
2019-01-23T09:13:10.259Z,91.33
2019-01-23T09:15:39.884Z,72.27
2019-01-23T09:18:11.188Z,77.03
2019-01-23T09:20:40.854Z,76.80
2019-01-23T09:23:10.577Z,80.23
2019-01-23T09:25:41.450Z,87.47
2019-01-23T09:28:11.783Z,71.80
2019-01-23T09:30:44.801Z,64.40
2019-01-23T09:33:20.464Z,68.97
2019-01-23T09:36:06.563Z,70.17
2019-01-23T09:39:01.852Z,69.67
2019-01-23T09:41:55.966Z,100.83
2019-01-23T09:44:47.079Z,80.27
2019-01-23T09:47:23.687Z,75.07
2019-01-23T09:49:56.458Z,73.60
2019-01-23T09:52:47.411Z,82.63
2019-01-23T09:55:17.141Z,71.20
2019-01-23T09:57:46.993Z,72.00
2019-01-23T10:00:20.950Z,91.90
2019-01-23T10:02:50.799Z,76.47
2019-01-23T10:05:22.311Z,83.53
2019-01-23T10:07:52.101Z,72.80
2019-01-23T10:10:22.323Z,77.07
2019-01-23T10:12:53.593Z,66.50
2019-01-23T10:15:32.399Z,83.27
2019-01-23T10:18:02.099Z,78.60
2019-01-23T10:20:31.742Z,78.77
2019-01-23T10:23:01.503Z,73.70
2019-01-23T10:25:33.927Z,77.20
2019-01-23T10:28:03.591Z,70.33
2019-01-23T10:30:36.472Z,79.37
2019-01-23T10:33:07.555Z,73.40
2019-01-23T10:35:37.431Z,72.37
2019-01-23T10:38:07.140Z,71.17
2019-01-23T10:40:39.451Z,76.60
2019-01-23T10:43:10.714Z,67.53
2019-01-23T10:45:41.577Z,67.43
2019-01-23T10:48:11.314Z,74.00
2019-01-23T10:50:41.087Z,82.53
2019-01-23T10:53:12.041Z,86.37
2019-01-23T10:55:41.731Z,69.60
2019-01-23T10:58:12.358Z,63.40
2019-01-23T11:00:42.584Z,68.77
2019-01-23T11:03:14.123Z,72.87
2019-01-23T11:05:43.929Z,64.10
2019-01-23T11:08:13.571Z,60.53
2019-01-23T11:10:44.595Z,55.10
2019-01-23T11:13:14.293Z,69.90
2019-01-23T11:15:46.263Z,62.27
2019-01-23T11:18:15.896Z,56.47
2019-01-23T11:20:46.833Z,58.97
2019-01-23T11:23:20.784Z,45.50
2019-01-23T11:25:55.783Z,60.87
2019-01-23T11:28:27.080Z,53.33
2019-01-23T11:30:56.808Z,57.67
2019-01-23T11:33:26.445Z,71.17
2019-01-23T11:35:57.757Z,62.50
2019-01-23T11:38:27.573Z,67.90
2019-01-23T11:41:00.900Z,53.73
2019-01-23T11:43:34.467Z,65.20
2019-01-23T11:46:05.920Z,46.43
2019-01-23T11:48:36.576Z,53.27
2019-01-23T11:51:07.168Z,46.20
2019-01-23T11:53:38.765Z,40.03
2019-01-23T11:56:09.197Z,44.30
2019-01-23T11:58:39.420Z,47.37
2019-01-23T12:01:10.738Z,44.50
2019-01-23T12:03:41.759Z,42.70
2019-01-23T12:06:13.127Z,47.73
2019-01-23T12:08:44.397Z,42.03
2019-01-23T12:11:14.048Z,41.70
2019-01-23T12:13:45.160Z,36.90
2019-01-23T12:16:18.338Z,37.77
2019-01-23T12:18:48.675Z,36.10
2019-01-23T12:21:18.372Z,42.23
2019-01-23T12:23:48.020Z,39.30
2019-01-23T12:26:18.320Z,34.13
2019-01-23T12:28:49.448Z,37.83
2019-01-23T12:31:24.529Z,34.20
2019-01-23T12:33:54.187Z,39.50
2019-01-23T12:36:25.504Z,37.73
2019-01-23T12:38:57.011Z,33.53
2019-01-23T12:41:30.449Z,32.90
2019-01-23T12:44:00.825Z,33.67
2019-01-23T12:46:30.538Z,35.63
2019-01-23T12:49:01.466Z,31.67
2019-01-23T12:51:31.628Z,36.37
2019-01-23T12:54:09.558Z,39.10
2019-01-23T12:56:39.302Z,34.23
2019-01-23T12:59:11.804Z,38.10
2019-01-23T13:01:42.409Z,41.37
2019-01-23T13:04:16.089Z,35.03
2019-01-23T13:06:49.492Z,36.80
2019-01-23T13:09:19.270Z,35.07
2019-01-23T13:11:50.216Z,43.03
2019-01-23T13:14:19.914Z,39.10
2019-01-23T13:16:52.661Z,42.63
2019-01-23T13:19:24.845Z,38.17
2019-01-23T13:21:55.748Z,33.90
2019-01-23T13:24:26.783Z,31.77
2019-01-23T13:26:57.798Z,38.57
2019-01-23T13:29:29.468Z,42.73
2019-01-23T13:31:59.132Z,36.90
2019-01-23T13:34:30.069Z,36.37
2019-01-23T13:37:00.391Z,36.47
2019-01-23T13:39:30.101Z,31.80
2019-01-23T13:41:59.945Z,47.63
2019-01-23T13:44:29.650Z,42.00
2019-01-23T13:46:59.427Z,46.77
2019-01-23T13:49:29.184Z,43.73
2019-01-23T13:52:00.346Z,47.30
2019-01-23T13:54:30.117Z,50.10
2019-01-23T13:57:02.710Z,39.27
2019-01-23T13:59:32.701Z,44.57
2019-01-23T14:02:02.398Z,33.87
2019-01-23T14:04:32.172Z,37.60
2019-01-23T14:07:07.409Z,44.50
2019-01-23T14:09:37.037Z,33.47
2019-01-23T14:12:07.251Z,31.20
2019-01-23T14:14:38.633Z,54.00
2019-01-23T14:17:08.343Z,43.70
2019-01-23T14:19:39.719Z,36.17
2019-01-23T14:22:12.210Z,49.50
2019-01-23T14:24:44.076Z,41.83
2019-01-23T14:27:16.635Z,49.93
2019-01-23T14:29:49.640Z,41.80
2019-01-23T14:32:23.359Z,43.87
2019-01-23T14:34:53.073Z,39.40
2019-01-23T14:37:29.367Z,34.87
2019-01-23T14:40:02.011Z,30.10
2019-01-23T14:42:33.263Z,30.13
2019-01-23T14:45:06.641Z,35.73
2019-01-23T14:47:39.209Z,33.47
2019-01-23T14:50:14.121Z,30.67
2019-01-23T14:52:52.825Z,24.20
2019-01-23T14:55:25.091Z,22.60
2019-01-23T14:57:57.379Z,25.13
2019-01-23T15:00:29.797Z,23.97
2019-01-23T15:03:04.797Z,23.80
2019-01-23T15:05:34.322Z,27.20
2019-01-23T15:08:05.696Z,27.60
2019-01-23T15:10:35.447Z,23.70
2019-01-23T15:13:06.700Z,38.60
2019-01-23T15:15:38.003Z,32.87
2019-01-23T15:18:10.236Z,24.30
2019-01-23T15:20:41.513Z,37.97
2019-01-23T15:23:12.780Z,29.47
2019-01-23T15:25:45.867Z,24.07
2019-01-23T15:31:09.563Z,41.30
2019-01-23T15:33:42.166Z,34.33
2019-01-23T15:36:12.787Z,38.33
2019-01-23T15:38:46.282Z,30.20
2019-01-23T15:41:17.582Z,37.27
2019-01-23T15:43:47.305Z,36.53
2019-01-23T15:46:19.963Z,42.87
2019-01-23T15:48:49.673Z,30.40
2019-01-23T15:51:22.465Z,24.17
2019-01-23T15:53:53.557Z,25.40
2019-01-23T15:56:25.765Z,30.73
2019-01-23T15:58:59.941Z,25.73
2019-01-23T16:01:31.939Z,42.20
2019-01-23T16:04:03.357Z,32.87
2019-01-23T16:06:34.694Z,38.90
2019-01-23T16:09:07.903Z,32.83
2019-01-23T16:11:40.028Z,33.43
2019-01-23T16:14:14.040Z,32.93
2019-01-23T16:16:48.771Z,33.70
2019-01-23T16:19:23.073Z,32.03
2019-01-23T16:21:54.130Z,32.37
2019-01-23T16:24:27.118Z,41.60
2019-01-23T16:27:01.656Z,27.77
2019-01-23T16:29:34.109Z,38.37
2019-01-23T16:32:05.879Z,28.43
2019-01-23T16:34:39.514Z,35.17
2019-01-23T16:37:12.743Z,26.40
2019-01-23T16:39:42.468Z,25.63
2019-01-23T16:42:14.979Z,29.47
2019-01-23T16:44:46.828Z,28.53
2019-01-23T16:47:16.510Z,59.80
2019-01-23T16:49:46.139Z,26.07
2019-01-23T16:52:17.882Z,26.70
2019-01-23T16:54:47.707Z,21.10
2019-01-23T16:57:17.362Z,30.43
2019-01-23T16:59:48.728Z,23.23
2019-01-23T17:02:23.915Z,31.07
2019-01-23T17:04:56.092Z,28.60
2019-01-23T17:07:28.834Z,21.43
2019-01-23T17:09:59.460Z,24.70
2019-01-23T17:12:30.688Z,26.87
2019-01-23T17:15:01.300Z,25.67
2019-01-23T17:17:34.910Z,39.33
2019-01-23T17:20:07.500Z,23.50
2019-01-23T17:22:41.439Z,40.37
2019-01-23T17:25:13.188Z,20.70
2019-01-23T17:27:42.864Z,20.60
2019-01-23T17:30:17.894Z,23.77
2019-01-23T17:32:50.133Z,21.67
2019-01-23T17:35:21.586Z,18.67
2019-01-23T17:37:56.853Z,24.23
2019-01-23T17:40:32.110Z,17.23
2019-01-23T17:43:03.439Z,15.10
2019-01-23T17:45:40.850Z,20.40
2019-01-23T17:48:15.664Z,24.63
2019-01-23T17:50:58.599Z,18.77
2019-01-23T17:53:37.514Z,28.77
2019-01-23T17:56:08.838Z,27.87
2019-01-23T17:58:42.575Z,24.20
2019-01-23T18:01:14.812Z,24.33
2019-01-23T18:03:48.224Z,33.47
2019-01-23T18:06:21.393Z,24.23
2019-01-23T18:08:54.716Z,24.87
2019-01-23T18:11:24.398Z,19.37
2019-01-23T18:13:56.470Z,18.57
2019-01-23T18:16:27.677Z,24.00
2019-01-23T18:18:58.725Z,16.13
2019-01-23T18:21:30.029Z,17.60
2019-01-23T18:24:00.488Z,26.70
2019-01-23T18:26:37.433Z,22.03
2019-01-23T18:29:05.450Z,19.10
2019-01-23T18:31:35.130Z,30.07
2019-01-23T18:34:19.045Z,23.37
2019-01-23T18:37:01.305Z,30.50
2019-01-23T18:39:55.782Z,24.50
2019-01-23T18:42:44.013Z,28.73
2019-01-23T18:45:21.725Z,27.40
2019-01-23T18:47:57.455Z,48.53
2019-01-23T18:50:32.379Z,64.50
2019-01-23T18:53:02.086Z,38.17
2019-01-23T18:55:33.135Z,46.57
2019-01-23T18:58:06.973Z,29.67
2019-01-23T19:00:36.449Z,51.50
2019-01-23T19:03:10.262Z,46.27
2019-01-23T19:05:41.513Z,42.27
2019-01-23T19:08:11.866Z,45.33
2019-01-23T19:10:41.532Z,31.00
2019-01-23T19:13:12.874Z,43.17
2019-01-23T19:15:46.798Z,36.50
2019-01-23T19:18:16.515Z,38.50
2019-01-23T19:20:46.185Z,46.07
2019-01-23T19:23:17.435Z,39.70
2019-01-23T19:25:48.893Z,47.90
2019-01-23T19:28:18.598Z,38.60
2019-01-23T19:30:49.831Z,34.27
2019-01-23T19:33:19.570Z,38.60
2019-01-23T19:35:52.050Z,27.57
2019-01-23T19:38:23.103Z,36.70
2019-01-23T19:40:52.768Z,35.50
2019-01-23T19:43:22.474Z,39.73
2019-01-23T19:45:54.355Z,39.17
2019-01-23T19:48:26.617Z,33.40
2019-01-23T19:50:58.909Z,55.47
2019-01-23T19:53:31.647Z,40.93
2019-01-23T19:56:04.573Z,51.00
2019-01-23T19:58:35.822Z,47.03
2019-01-23T20:01:06.521Z,60.40
2019-01-23T20:03:36.261Z,48.77
2019-01-23T20:06:05.974Z,48.13
2019-01-23T20:08:35.715Z,51.27
2019-01-23T20:11:05.693Z,32.13
2019-01-23T20:13:36.130Z,43.37
2019-01-23T20:16:07.258Z,46.70
2019-01-23T20:18:41.623Z,36.93
2019-01-23T20:21:14.191Z,37.80
2019-01-23T20:23:49.520Z,40.73
2019-01-23T20:26:20.761Z,37.93
2019-01-23T20:28:53.004Z,43.53
2019-01-23T20:31:24.189Z,33.47
2019-01-23T20:33:55.201Z,35.77
2019-01-23T20:36:27.963Z,37.47
2019-01-23T20:38:57.711Z,37.07
2019-01-23T20:41:29.614Z,35.93
2019-01-23T20:44:00.527Z,32.43
2019-01-23T20:46:30.213Z,28.67
2019-01-23T20:48:59.901Z,52.93
2019-01-23T20:51:29.719Z,30.83
2019-01-23T20:54:00.934Z,33.03
2019-01-23T20:56:30.687Z,30.53
2019-01-23T20:59:02.698Z,32.30
2019-01-23T21:01:37.203Z,35.80
2019-01-23T21:04:08.472Z,42.63
2019-01-23T21:06:39.302Z,31.90
2019-01-23T21:09:09.993Z,45.30
2019-01-23T21:11:39.752Z,50.47
2019-01-23T21:14:10.009Z,33.97
2019-01-23T21:16:41.446Z,47.20
2019-01-23T21:19:11.159Z,43.83
2019-01-23T21:21:40.836Z,33.27
2019-01-23T21:24:10.578Z,38.50
2019-01-23T21:26:43.145Z,40.60
2019-01-23T21:29:22.390Z,44.20
2019-01-23T21:31:53.642Z,47.37
2019-01-23T21:34:26.335Z,62.93
2019-01-23T21:36:58.278Z,53.80
2019-01-23T21:39:27.916Z,67.90
2019-01-23T21:41:57.618Z,62.80
2019-01-23T21:44:27.266Z,55.63
2019-01-23T21:46:56.919Z,52.87
2019-01-23T21:49:26.687Z,49.30
2019-01-23T21:51:57.926Z,55.50
2019-01-23T21:54:27.598Z,59.60
2019-01-23T21:56:57.357Z,47.70
2019-01-23T21:59:28.175Z,44.43
2019-01-23T22:01:57.786Z,38.70
2019-01-23T22:04:27.592Z,37.47
2019-01-23T22:06:58.725Z,34.20
2019-01-23T22:09:28.418Z,33.97
2019-01-23T22:11:59.603Z,39.27
2019-01-23T22:14:29.253Z,31.93
2019-01-23T22:16:58.978Z,37.90
2019-01-23T22:19:28.684Z,32.13
2019-01-23T22:21:58.323Z,24.13
2019-01-23T22:24:27.963Z,15.93
2019-01-23T22:26:57.665Z,22.83
2019-01-23T22:29:28.706Z,28.80
2019-01-23T22:31:58.434Z,23.50
2019-01-23T22:34:29.682Z,17.97
2019-01-23T22:37:00.974Z,15.77
2019-01-23T22:39:34.028Z,23.67
2019-01-23T22:42:05.397Z,21.33
2019-01-23T22:44:35.160Z,28.03
2019-01-23T22:47:05.893Z,17.30
2019-01-23T22:49:35.668Z,15.40
2019-01-23T22:52:05.958Z,13.87
2019-01-23T22:54:36.316Z,25.53
2019-01-23T22:57:05.975Z,30.00
2019-01-23T22:59:35.957Z,17.67
2019-01-23T23:02:10.021Z,24.23
2019-01-23T23:04:40.128Z,20.77
2019-01-23T23:07:11.490Z,27.30
2019-01-23T23:09:41.159Z,16.97
2019-01-23T23:12:10.834Z,25.47
2019-01-23T23:14:49.388Z,17.10
2019-01-23T23:17:19.008Z,13.80
2019-01-23T23:19:48.752Z,27.17
2019-01-23T23:22:22.926Z,43.90
2019-01-23T23:24:53.405Z,28.73
2019-01-23T23:27:24.603Z,32.50
2019-01-23T23:29:54.875Z,19.97
2019-01-23T23:32:24.738Z,37.40
2019-01-23T23:34:56.598Z,31.50
2019-01-23T23:37:28.775Z,23.97
2019-01-23T23:40:02.655Z,34.13
2019-01-23T23:42:34.506Z,22.70
2019-01-23T23:45:06.292Z,34.17
2019-01-23T23:47:37.149Z,33.60
2019-01-23T23:50:13.319Z,40.67
2019-01-23T23:52:48.226Z,36.03
2019-01-23T23:55:19.490Z,28.37
2019-01-23T23:57:49.132Z,29.57
